createdAt,value
2023-05-04T00:01:10.968Z,57.00
2023-05-04T00:03:39.026Z,57.10
2023-05-04T00:06:07.665Z,57.10
2023-05-04T00:08:35.451Z,57.50
2023-05-04T00:11:05.101Z,57.50
2023-05-04T00:13:32.902Z,58.40
2023-05-04T00:16:00.793Z,57.80
2023-05-04T00:18:28.713Z,57.80
2023-05-04T00:20:56.528Z,58.00
2023-05-04T00:23:24.668Z,57.80
2023-05-04T00:25:52.467Z,57.80
2023-05-04T00:28:22.083Z,58.10
2023-05-04T00:30:50.379Z,58.40
2023-05-04T00:33:18.164Z,58.50
2023-05-04T00:35:46.370Z,58.90
2023-05-04T00:38:16.492Z,59.00
2023-05-04T00:40:44.336Z,59.10
2023-05-04T00:43:12.520Z,58.90
2023-05-04T00:45:42.211Z,58.80
2023-05-04T00:48:10.310Z,59.60
2023-05-04T00:50:38.309Z,59.50
2023-05-04T00:53:10.353Z,59.70
2023-05-04T00:55:40.563Z,59.80
2023-05-04T00:58:09.010Z,59.80
2023-05-04T01:00:37.378Z,60.10
2023-05-04T01:03:06.731Z,60.10
2023-05-04T01:05:39.286Z,60.20
2023-05-04T01:08:11.557Z,60.10
2023-05-04T01:10:46.324Z,60.70
2023-05-04T01:13:16.425Z,60.80
2023-05-04T01:15:44.676Z,60.80
2023-05-04T01:18:14.425Z,60.30
2023-05-04T01:20:42.278Z,61.40
2023-05-04T01:23:12.373Z,61.20
2023-05-04T01:25:46.355Z,60.90
2023-05-04T01:28:19.776Z,61.80
2023-05-04T01:30:55.551Z,61.90
2023-05-04T01:33:23.975Z,62.30
2023-05-04T01:35:52.174Z,62.30
2023-05-04T01:38:21.460Z,61.70
2023-05-04T01:40:49.830Z,61.60
2023-05-04T01:43:17.626Z,61.40
2023-05-04T01:45:45.462Z,61.60
2023-05-04T01:48:13.362Z,62.00
2023-05-04T01:50:41.255Z,63.30
2023-05-04T01:53:09.230Z,61.80
2023-05-04T01:55:38.561Z,61.90
2023-05-04T01:58:06.397Z,62.00
2023-05-04T02:00:34.528Z,62.10
2023-05-04T02:03:02.585Z,62.00
2023-05-04T02:05:30.578Z,62.00
2023-05-04T02:07:58.479Z,62.30
2023-05-04T02:10:26.357Z,61.50
2023-05-04T02:12:55.856Z,62.30
2023-05-04T02:15:23.741Z,62.20
2023-05-04T02:17:51.624Z,62.80
2023-05-04T02:20:19.682Z,62.30
2023-05-04T02:22:47.587Z,62.90
2023-05-04T02:25:15.892Z,62.20
2023-05-04T02:27:43.697Z,62.60
2023-05-04T02:30:14.609Z,62.50
2023-05-04T02:32:42.512Z,62.70
2023-05-04T02:35:10.854Z,62.30
2023-05-04T02:37:38.668Z,63.30
2023-05-04T02:40:07.848Z,62.50
2023-05-04T02:42:35.795Z,62.90
2023-05-04T02:45:03.851Z,62.70
2023-05-04T02:47:33.064Z,62.80
2023-05-04T02:50:00.846Z,63.20
2023-05-04T02:52:28.629Z,63.10
2023-05-04T02:54:56.488Z,63.10
2023-05-04T02:57:24.327Z,62.70
2023-05-04T02:59:52.531Z,62.80
2023-05-04T03:02:20.788Z,63.30
2023-05-04T03:04:50.741Z,63.50
2023-05-04T03:07:18.666Z,63.20
2023-05-04T03:09:47.901Z,63.60
2023-05-04T03:12:16.618Z,63.90
2023-05-04T03:14:44.441Z,63.80
2023-05-04T03:17:12.418Z,63.80
2023-05-04T03:19:40.258Z,63.50
2023-05-04T03:22:09.557Z,64.20
2023-05-04T03:24:37.975Z,64.30
2023-05-04T03:27:05.888Z,64.30
2023-05-04T03:29:33.794Z,64.50
2023-05-04T03:32:01.732Z,64.20
2023-05-04T03:34:29.590Z,64.60
2023-05-04T03:37:02.258Z,64.40
2023-05-04T03:39:31.914Z,64.50
2023-05-04T03:41:59.690Z,64.40
2023-05-04T03:44:27.544Z,64.70
2023-05-04T03:46:55.373Z,64.60
2023-05-04T03:49:23.230Z,64.80
2023-05-04T03:51:51.246Z,64.80
2023-05-04T03:54:19.076Z,64.60
2023-05-04T03:56:48.749Z,64.80
2023-05-04T03:59:17.496Z,65.20
2023-05-04T04:01:45.397Z,65.10
2023-05-04T04:04:13.298Z,65.20
2023-05-04T04:06:43.311Z,65.30
2023-05-04T04:09:11.547Z,65.40
2023-05-04T04:11:39.306Z,65.50
2023-05-04T04:14:08.517Z,65.30
2023-05-04T04:16:36.374Z,65.70
2023-05-04T04:19:04.304Z,65.50
2023-05-04T04:21:32.155Z,65.50
2023-05-04T04:23:59.949Z,65.70
2023-05-04T04:26:28.265Z,65.80
2023-05-04T04:28:56.145Z,65.80
2023-05-04T04:31:25.394Z,66.00
2023-05-04T04:33:53.251Z,66.30
2023-05-04T04:36:21.121Z,65.90
2023-05-04T04:38:49.683Z,66.30
2023-05-04T04:41:17.551Z,66.30
2023-05-04T04:43:46.268Z,66.50
2023-05-04T04:46:14.589Z,66.60
2023-05-04T04:48:43.772Z,66.30
2023-05-04T04:51:12.175Z,66.60
2023-05-04T04:53:40.068Z,66.40
2023-05-04T04:56:09.559Z,66.70
2023-05-04T04:58:37.460Z,66.90
2023-05-04T05:01:06.051Z,66.90
2023-05-04T05:03:33.951Z,67.00
2023-05-04T05:06:03.997Z,66.90
2023-05-04T05:08:33.810Z,67.20
2023-05-04T05:11:01.569Z,67.20
2023-05-04T05:13:29.381Z,66.90
2023-05-04T05:15:57.257Z,67.20
2023-05-04T05:18:25.127Z,67.50
2023-05-04T05:20:52.865Z,67.20
2023-05-04T05:23:22.224Z,67.50
2023-05-04T05:25:51.572Z,67.70
2023-05-04T05:28:19.589Z,67.60
2023-05-04T05:30:47.961Z,67.50
2023-05-04T05:33:16.820Z,68.10
2023-05-04T05:35:44.827Z,67.90
2023-05-04T05:38:12.915Z,67.80
2023-05-04T05:40:42.148Z,68.00
2023-05-04T05:43:10.499Z,68.10
2023-05-04T05:45:38.364Z,68.10
2023-05-04T05:48:06.773Z,68.00
2023-05-04T05:50:35.293Z,68.10
2023-05-04T05:53:03.112Z,68.40
2023-05-04T05:55:31.010Z,68.50
2023-05-04T05:58:00.204Z,68.80
2023-05-04T06:00:28.083Z,69.20
2023-05-04T06:02:56.254Z,68.50
2023-05-04T06:05:24.506Z,68.60
2023-05-04T06:07:52.358Z,69.00
2023-05-04T06:10:20.409Z,68.70
2023-05-04T06:12:48.687Z,68.60
2023-05-04T06:15:18.500Z,68.50
2023-05-04T06:17:48.799Z,69.20
2023-05-04T06:20:17.192Z,68.60
2023-05-04T06:22:45.359Z,68.90
2023-05-04T06:25:13.518Z,68.70
2023-05-04T06:27:41.439Z,68.30
2023-05-04T06:30:10.608Z,68.40
2023-05-04T06:32:39.901Z,68.50
2023-05-04T06:35:08.993Z,68.30
2023-05-04T06:37:37.319Z,68.20
2023-05-04T06:40:06.057Z,67.90
2023-05-04T06:42:33.913Z,68.00
2023-05-04T06:45:01.767Z,67.50
2023-05-04T06:47:29.678Z,67.30
2023-05-04T06:49:58.917Z,67.00
2023-05-04T06:52:29.592Z,67.00
2023-05-04T06:54:57.402Z,66.70
2023-05-04T06:57:25.554Z,66.80
2023-05-04T06:59:53.681Z,66.90
2023-05-04T07:02:21.516Z,66.90
2023-05-04T07:04:49.818Z,66.80
2023-05-04T07:07:19.087Z,66.40
2023-05-04T07:09:47.857Z,66.60
2023-05-04T07:12:16.195Z,66.40
2023-05-04T07:14:44.022Z,66.50
2023-05-04T07:17:12.014Z,66.30
2023-05-04T07:19:39.787Z,66.00
2023-05-04T07:22:07.558Z,66.00
2023-05-04T07:24:36.870Z,66.00
2023-05-04T07:27:04.886Z,65.60
2023-05-04T07:29:33.131Z,65.50
2023-05-04T07:32:00.952Z,65.20
2023-05-04T07:34:44.631Z,65.20
2023-05-04T07:37:15.861Z,65.20
2023-05-04T07:39:46.634Z,65.70
2023-05-04T07:42:14.817Z,64.70
2023-05-04T07:44:42.727Z,64.40
2023-05-04T07:47:10.751Z,63.70
2023-05-04T07:49:38.630Z,63.60
2023-05-04T07:52:06.743Z,63.50
2023-05-04T07:54:34.650Z,63.40
2023-05-04T07:57:04.726Z,63.60
2023-05-04T07:59:32.930Z,63.50
2023-05-04T08:02:00.908Z,64.00
2023-05-04T08:04:28.790Z,63.60
2023-05-04T08:06:56.681Z,63.30
2023-05-04T08:09:24.514Z,63.20
2023-05-04T08:11:52.481Z,63.00
2023-05-04T08:14:21.868Z,62.90
2023-05-04T08:16:50.161Z,62.50
2023-05-04T08:19:20.014Z,62.20
2023-05-04T08:21:48.767Z,62.30
2023-05-04T08:24:17.264Z,61.80
2023-05-04T08:26:49.894Z,62.40
2023-05-04T08:29:31.554Z,60.80
2023-05-04T08:32:00.547Z,60.70
2023-05-04T08:34:30.867Z,59.10
2023-05-04T08:36:59.463Z,61.30
2023-05-04T08:39:27.557Z,60.10
2023-05-04T08:41:55.515Z,59.70
2023-05-04T08:44:24.167Z,59.40
2023-05-04T08:46:54.273Z,58.90
2023-05-04T08:49:22.655Z,59.00
2023-05-04T08:51:51.482Z,58.20
2023-05-04T08:54:19.919Z,57.90
2023-05-04T08:56:48.001Z,58.00
2023-05-04T08:59:20.410Z,57.90
2023-05-04T09:01:52.914Z,56.90
2023-05-04T09:04:22.534Z,56.10
2023-05-04T09:06:50.836Z,56.60
2023-05-04T09:09:18.756Z,56.50
2023-05-04T09:11:46.761Z,56.70
2023-05-04T09:14:15.328Z,56.70
2023-05-04T09:16:43.222Z,56.40
2023-05-04T09:19:20.014Z,56.00
2023-05-04T09:21:51.246Z,55.50
2023-05-04T09:24:27.724Z,55.20
2023-05-04T09:26:55.935Z,54.70
2023-05-04T09:29:25.590Z,54.00
2023-05-04T09:31:55.432Z,54.20
2023-05-04T09:34:23.411Z,53.10
2023-05-04T09:37:03.608Z,52.90
2023-05-04T09:39:31.579Z,53.00
2023-05-04T09:41:59.500Z,52.40
2023-05-04T09:44:29.654Z,52.60
2023-05-04T09:46:58.821Z,52.50
2023-05-04T09:49:33.731Z,51.80
2023-05-04T09:52:04.769Z,51.40
2023-05-04T09:54:36.334Z,52.20
2023-05-04T09:57:12.954Z,52.50
2023-05-04T09:59:41.405Z,51.80
2023-05-04T10:02:22.092Z,51.00
2023-05-04T10:04:52.466Z,49.50
2023-05-04T10:07:22.184Z,49.00
2023-05-04T10:09:51.153Z,49.20
2023-05-04T10:12:19.273Z,48.60
2023-05-04T10:14:47.698Z,48.40
2023-05-04T10:17:26.378Z,48.40
2023-05-04T10:20:07.396Z,47.00
2023-05-04T10:23:04.031Z,47.50
2023-05-04T10:25:53.415Z,46.60
2023-05-04T10:28:35.761Z,47.20
2023-05-04T10:31:06.146Z,46.80
2023-05-04T10:33:44.083Z,47.10
2023-05-04T10:36:12.672Z,44.30
2023-05-04T10:38:42.722Z,44.70
2023-05-04T10:41:17.449Z,44.80
2023-05-04T10:43:48.800Z,44.50
2023-05-04T10:46:21.241Z,44.30
2023-05-04T10:48:50.390Z,43.90
2023-05-04T10:51:22.437Z,44.80
2023-05-04T10:53:52.828Z,44.40
2023-05-04T10:56:24.532Z,43.30
2023-05-04T10:58:52.615Z,43.80
2023-05-04T11:01:21.690Z,43.60
2023-05-04T11:03:50.512Z,43.40
2023-05-04T11:06:23.256Z,43.70
2023-05-04T11:09:02.627Z,43.70
2023-05-04T11:11:30.893Z,43.10
2023-05-04T11:13:59.553Z,43.40
2023-05-04T11:16:28.553Z,43.00
2023-05-04T11:18:56.485Z,42.90
2023-05-04T11:21:28.171Z,43.00
2023-05-04T11:23:56.847Z,42.60
2023-05-04T11:26:26.484Z,43.20
2023-05-04T11:28:54.622Z,43.40
2023-05-04T11:31:22.797Z,43.00
2023-05-04T11:33:52.312Z,43.10
2023-05-04T11:36:21.766Z,43.30
2023-05-04T11:38:50.900Z,43.10
2023-05-04T11:41:18.731Z,43.80
2023-05-04T11:43:48.980Z,42.80
2023-05-04T11:46:18.050Z,42.50
2023-05-04T11:48:47.400Z,42.70
2023-05-04T11:51:15.282Z,43.60
2023-05-04T11:53:43.124Z,42.30
2023-05-04T11:56:11.336Z,41.60
2023-05-04T11:58:39.167Z,42.20
2023-05-04T12:01:08.609Z,42.80
2023-05-04T12:03:51.218Z,42.70
2023-05-04T12:06:31.640Z,42.30
2023-05-04T12:09:03.503Z,42.00
2023-05-04T12:11:31.397Z,41.70
2023-05-04T12:14:04.362Z,42.50
2023-05-04T12:16:34.207Z,42.30
2023-05-04T12:19:06.412Z,42.00
2023-05-04T12:21:35.969Z,41.70
2023-05-04T12:24:04.405Z,42.70
2023-05-04T12:26:32.308Z,42.90
2023-05-04T12:29:00.116Z,42.50
2023-05-04T12:31:28.598Z,42.20
2023-05-04T12:33:57.866Z,41.20
2023-05-04T12:36:25.746Z,40.20
2023-05-04T12:38:53.829Z,40.50
2023-05-04T12:41:21.767Z,40.50
2023-05-04T12:43:50.865Z,40.00
2023-05-04T12:46:21.520Z,40.60
2023-05-04T12:48:49.892Z,39.30
2023-05-04T12:51:19.166Z,38.20
2023-05-04T12:53:46.992Z,39.00
2023-05-04T12:56:15.209Z,38.70
2023-05-04T12:58:43.053Z,39.00
2023-05-04T13:01:11.088Z,39.10
2023-05-04T13:03:39.180Z,38.80
2023-05-04T13:06:07.700Z,38.60
2023-05-04T13:08:37.638Z,38.90
2023-05-04T13:11:05.485Z,38.70
2023-05-04T13:13:34.710Z,38.70
2023-05-04T13:16:02.975Z,39.10
2023-05-04T13:18:31.049Z,39.30
2023-05-04T13:20:59.142Z,38.80
2023-05-04T13:23:27.004Z,38.90
2023-05-04T13:25:56.235Z,39.00
2023-05-04T13:28:24.377Z,38.20
2023-05-04T13:30:53.117Z,38.90
2023-05-04T13:33:29.455Z,38.60
2023-05-04T13:35:58.825Z,38.50
2023-05-04T13:38:27.243Z,37.70
2023-05-04T13:40:56.733Z,38.20
2023-05-04T13:43:24.749Z,37.70
2023-05-04T13:45:52.941Z,37.90
2023-05-04T13:48:20.856Z,37.60
2023-05-04T13:50:48.946Z,37.90
2023-05-04T13:53:16.837Z,37.70
2023-05-04T13:55:45.535Z,38.20
2023-05-04T13:58:15.130Z,38.00
2023-05-04T14:00:43.223Z,37.20
2023-05-04T14:03:11.648Z,37.40
2023-05-04T14:05:39.482Z,37.10
2023-05-04T14:08:07.467Z,37.20
2023-05-04T14:10:37.558Z,37.50
2023-05-04T14:13:05.615Z,37.60
2023-05-04T14:15:34.794Z,37.80
2023-05-04T14:18:02.685Z,37.40
2023-05-04T14:20:30.553Z,37.00
2023-05-04T14:22:58.441Z,37.10
2023-05-04T14:25:26.723Z,37.10
2023-05-04T14:27:54.557Z,36.60
2023-05-04T14:30:22.599Z,36.30
2023-05-04T14:32:54.577Z,36.80
2023-05-04T14:35:22.812Z,36.00
2023-05-04T14:37:50.828Z,35.90
2023-05-04T14:40:18.764Z,35.70
2023-05-04T14:42:47.059Z,36.20
2023-05-04T14:45:17.110Z,35.80
2023-05-04T14:47:45.462Z,35.30
2023-05-04T14:50:15.455Z,36.00
2023-05-04T14:52:43.236Z,35.90
2023-05-04T14:55:11.615Z,35.40
2023-05-04T14:57:39.721Z,35.30
2023-05-04T15:00:09.535Z,35.20
2023-05-04T15:02:38.459Z,35.50
2023-05-04T15:05:07.451Z,36.40
2023-05-04T15:07:36.692Z,35.90
2023-05-04T15:10:06.866Z,35.20
2023-05-04T15:12:34.992Z,35.80
2023-05-04T15:15:02.785Z,35.10
2023-05-04T15:17:30.783Z,35.20
2023-05-04T15:19:58.703Z,35.10
2023-05-04T15:22:26.738Z,35.40
2023-05-04T15:24:56.591Z,35.60
2023-05-04T15:27:24.463Z,34.50
2023-05-04T15:29:52.342Z,34.60
2023-05-04T15:32:20.256Z,34.00
2023-05-04T15:34:57.427Z,33.90
2023-05-04T15:37:32.225Z,33.80
2023-05-04T15:40:03.721Z,33.80
2023-05-04T15:42:31.664Z,33.80
2023-05-04T15:44:59.507Z,33.70
2023-05-04T15:47:27.469Z,33.50
2023-05-04T15:49:55.600Z,33.20
2023-05-04T15:52:24.042Z,33.50
2023-05-04T15:54:51.957Z,33.50
2023-05-04T15:57:21.507Z,33.30
2023-05-04T15:59:50.317Z,33.30
2023-05-04T16:02:18.135Z,33.70
2023-05-04T16:04:46.709Z,33.70
2023-05-04T16:07:14.604Z,33.80
2023-05-04T16:09:42.550Z,33.80
2023-05-04T16:12:10.617Z,34.10
2023-05-04T16:14:39.765Z,33.90
2023-05-04T16:17:08.122Z,33.90
2023-05-04T16:19:36.314Z,34.50
2023-05-04T16:22:04.228Z,34.50
2023-05-04T16:24:32.065Z,34.40
2023-05-04T16:27:00.632Z,34.50
2023-05-04T16:29:28.504Z,34.10
2023-05-04T16:31:57.736Z,34.40
2023-05-04T16:34:25.785Z,33.80
2023-05-04T16:36:53.594Z,33.90
2023-05-04T16:39:21.441Z,33.50
2023-05-04T16:41:49.618Z,33.20
2023-05-04T16:44:17.464Z,33.10
2023-05-04T16:46:45.352Z,33.90
2023-05-04T16:49:14.918Z,34.00
2023-05-04T16:51:43.289Z,33.70
2023-05-04T16:54:11.450Z,34.20
2023-05-04T16:56:39.302Z,34.10
2023-05-04T16:59:07.142Z,34.50
2023-05-04T17:01:35.402Z,34.80
2023-05-04T17:04:03.421Z,34.80
2023-05-04T17:06:32.629Z,35.20
2023-05-04T17:09:00.832Z,35.50
2023-05-04T17:11:28.682Z,35.50
2023-05-04T17:13:56.945Z,35.90
2023-05-04T17:16:24.807Z,36.20
2023-05-04T17:18:52.702Z,36.30
2023-05-04T17:21:20.831Z,36.60
2023-05-04T17:23:50.517Z,36.70
2023-05-04T17:26:18.338Z,36.90
2023-05-04T17:28:46.445Z,37.40
2023-05-04T17:31:14.386Z,37.60
2023-05-04T17:33:42.227Z,37.80
2023-05-04T17:36:11.982Z,37.80
2023-05-04T17:38:41.822Z,37.80
2023-05-04T17:41:11.330Z,37.90
2023-05-04T17:43:39.206Z,38.00
2023-05-04T17:46:07.119Z,38.00
2023-05-04T17:48:36.317Z,38.40
2023-05-04T17:51:04.596Z,38.40
2023-05-04T17:53:32.534Z,38.60
2023-05-04T17:56:00.320Z,38.60
2023-05-04T17:58:29.536Z,38.70
2023-05-04T18:00:57.403Z,38.90
2023-05-04T18:03:25.433Z,38.80
2023-05-04T18:05:53.281Z,38.80
2023-05-04T18:08:21.066Z,39.20
2023-05-04T18:10:50.367Z,39.40
2023-05-04T18:13:18.292Z,39.40
2023-05-04T18:15:47.776Z,39.30
2023-05-04T18:18:15.874Z,39.40
2023-05-04T18:20:43.711Z,39.60
2023-05-04T18:23:11.639Z,39.50
2023-05-04T18:25:39.641Z,39.60
2023-05-04T18:28:08.506Z,39.50
2023-05-04T18:30:36.363Z,39.70
2023-05-04T18:33:05.742Z,39.70
2023-05-04T18:35:33.624Z,39.90
2023-05-04T18:38:01.485Z,39.80
2023-05-04T18:40:29.422Z,41.10
2023-05-04T18:42:57.406Z,40.00
2023-05-04T18:45:26.054Z,40.20
2023-05-04T18:47:54.009Z,40.00
2023-05-04T18:50:23.495Z,39.90
2023-05-04T18:52:52.138Z,40.00
2023-05-04T18:55:20.290Z,40.00
2023-05-04T18:57:48.568Z,40.20
2023-05-04T19:00:16.846Z,40.20
2023-05-04T19:02:44.840Z,40.30
2023-05-04T19:05:14.657Z,40.30
2023-05-04T19:07:44.377Z,40.40
2023-05-04T19:10:12.730Z,40.40
2023-05-04T19:12:40.584Z,40.40
2023-05-04T19:15:09.358Z,40.50
2023-05-04T19:17:37.341Z,40.60
2023-05-04T19:20:06.279Z,40.60
2023-05-04T19:22:34.233Z,40.70
2023-05-04T19:25:04.517Z,40.70
2023-05-04T19:27:32.361Z,40.90
2023-05-04T19:30:00.437Z,40.80
2023-05-04T19:32:30.899Z,40.90
2023-05-04T19:34:58.756Z,41.00
2023-05-04T19:37:26.986Z,41.70
2023-05-04T19:39:54.794Z,41.70
2023-05-04T19:42:24.049Z,41.60
2023-05-04T19:44:51.933Z,41.50
2023-05-04T19:47:19.760Z,41.60
2023-05-04T19:49:48.590Z,41.60
2023-05-04T19:52:16.638Z,41.60
2023-05-04T19:54:48.648Z,41.50
2023-05-04T19:57:16.619Z,41.50
2023-05-04T19:59:47.280Z,41.50
2023-05-04T20:02:15.731Z,41.60
2023-05-04T20:04:43.681Z,41.60
2023-05-04T20:07:11.587Z,41.80
2023-05-04T20:09:39.440Z,41.80
2023-05-04T20:12:07.387Z,41.80
2023-05-04T20:14:36.080Z,42.00
2023-05-04T20:17:05.266Z,42.10
2023-05-04T20:19:33.031Z,42.30
2023-05-04T20:22:00.955Z,42.40
2023-05-04T20:24:28.816Z,42.40
2023-05-04T20:26:56.677Z,43.20
2023-05-04T20:29:24.533Z,43.20
2023-05-04T20:31:52.606Z,43.10
2023-05-04T20:34:21.764Z,42.90
2023-05-04T20:36:49.761Z,43.00
2023-05-04T20:39:17.967Z,42.70
2023-05-04T20:41:46.008Z,43.20
2023-05-04T20:44:13.818Z,43.40
2023-05-04T20:46:41.644Z,43.40
2023-05-04T20:49:09.541Z,43.50
2023-05-04T20:51:38.907Z,43.60
2023-05-04T20:54:06.871Z,43.60
2023-05-04T20:56:34.811Z,43.80
2023-05-04T20:59:02.702Z,43.80
2023-05-04T21:01:30.626Z,43.90
2023-05-04T21:03:58.660Z,43.90
2023-05-04T21:06:26.651Z,44.00
2023-05-04T21:08:56.873Z,44.40
2023-05-04T21:11:24.736Z,44.40
2023-05-04T21:13:52.710Z,44.30
2023-05-04T21:16:20.512Z,44.70
2023-05-04T21:18:48.806Z,44.80
2023-05-04T21:21:16.981Z,44.80
2023-05-04T21:23:44.798Z,44.80
2023-05-04T21:26:14.047Z,44.90
2023-05-04T21:28:42.513Z,45.00
2023-05-04T21:31:10.561Z,45.00
2023-05-04T21:33:38.457Z,45.10
2023-05-04T21:36:13.888Z,45.00
2023-05-04T21:38:41.991Z,45.20
2023-05-04T21:41:15.566Z,45.00
2023-05-04T21:43:44.110Z,45.50
2023-05-04T21:46:12.946Z,45.20
2023-05-04T21:48:41.468Z,45.00
2023-05-04T21:51:09.387Z,45.30
2023-05-04T21:53:37.269Z,45.50
2023-05-04T21:56:08.169Z,45.50
2023-05-04T21:58:39.481Z,45.80
2023-05-04T22:01:07.546Z,45.70
2023-05-04T22:03:35.466Z,46.50
2023-05-04T22:06:03.480Z,46.40
2023-05-04T22:08:31.363Z,47.10
2023-05-04T22:10:59.650Z,47.10
2023-05-04T22:13:27.869Z,46.70
2023-05-04T22:15:56.993Z,46.70
2023-05-04T22:18:24.863Z,46.40
2023-05-04T22:20:52.684Z,46.30
2023-05-04T22:23:20.558Z,46.30
2023-05-04T22:25:48.686Z,46.20
2023-05-04T22:28:16.870Z,46.10
2023-05-04T22:30:44.795Z,46.30
2023-05-04T22:33:14.343Z,46.20
2023-05-04T22:35:42.282Z,46.30
2023-05-04T22:38:10.227Z,46.30
2023-05-04T22:40:40.410Z,46.40
2023-05-04T22:43:08.458Z,46.50
2023-05-04T22:45:36.734Z,46.80
2023-05-04T22:48:04.754Z,46.60
2023-05-04T22:50:34.016Z,46.80
2023-05-04T22:53:01.943Z,47.20
2023-05-04T22:55:30.241Z,47.70
2023-05-04T22:57:58.482Z,47.10
2023-05-04T23:00:26.533Z,46.90
2023-05-04T23:02:54.497Z,47.50
2023-05-04T23:05:22.690Z,47.70
2023-05-04T23:07:52.884Z,48.10
2023-05-04T23:10:21.244Z,48.50
2023-05-04T23:12:49.608Z,48.50
2023-05-04T23:15:18.246Z,48.30
2023-05-04T23:17:46.131Z,49.00
2023-05-04T23:20:14.528Z,49.10
2023-05-04T23:22:42.385Z,49.40
2023-05-04T23:25:11.716Z,49.70
2023-05-04T23:27:39.819Z,49.40
2023-05-04T23:30:09.896Z,49.40
2023-05-04T23:32:37.982Z,49.50
2023-05-04T23:35:07.487Z,49.70
2023-05-04T23:37:35.336Z,50.00
2023-05-04T23:40:03.311Z,50.20
2023-05-04T23:42:32.518Z,50.30
2023-05-04T23:45:00.371Z,50.50
2023-05-04T23:47:28.253Z,50.50
2023-05-04T23:49:56.172Z,50.40
2023-05-04T23:52:24.108Z,50.50
2023-05-04T23:54:54.484Z,50.70
2023-05-04T23:57:22.409Z,51.30
2023-05-04T23:59:53.041Z,52.60
